sensor_id;sensor_type;location;lat;lon;timestamp;temperature;humidity
1680;DHT22;838;51.794;12.258;2023-07-29T00:03:28;19.40;76.00
1680;DHT22;838;51.794;12.258;2023-07-29T00:05:56;19.30;77.20
1680;DHT22;838;51.794;12.258;2023-07-29T00:08:21;19.10;81.40
1680;DHT22;838;51.794;12.258;2023-07-29T00:10:47;18.70;85.40
1680;DHT22;838;51.794;12.258;2023-07-29T00:13:13;18.50;87.80
1680;DHT22;838;51.794;12.258;2023-07-29T00:15:39;18.40;89.90
1680;DHT22;838;51.794;12.258;2023-07-29T00:18:07;18.40;90.00
1680;DHT22;838;51.794;12.258;2023-07-29T00:20:33;18.30;90.40
1680;DHT22;838;51.794;12.258;2023-07-29T00:22:59;18.30;90.60
1680;DHT22;838;51.794;12.258;2023-07-29T00:25:25;18.40;91.00
1680;DHT22;838;51.794;12.258;2023-07-29T00:27:51;18.60;90.10
1680;DHT22;838;51.794;12.258;2023-07-29T00:30:16;18.70;87.50
1680;DHT22;838;51.794;12.258;2023-07-29T00:32:42;18.70;87.30
1680;DHT22;838;51.794;12.258;2023-07-29T00:35:08;18.70;87.90
1680;DHT22;838;51.794;12.258;2023-07-29T00:37:34;18.60;89.10
1680;DHT22;838;51.794;12.258;2023-07-29T00:40:00;18.70;89.60
1680;DHT22;838;51.794;12.258;2023-07-29T00:42:25;18.80;88.40
1680;DHT22;838;51.794;12.258;2023-07-29T00:44:51;18.70;87.50
1680;DHT22;838;51.794;12.258;2023-07-29T00:47:18;18.70;89.30
1680;DHT22;838;51.794;12.258;2023-07-29T00:49:44;18.80;88.60
1680;DHT22;838;51.794;12.258;2023-07-29T00:52:11;18.90;88.50
1680;DHT22;838;51.794;12.258;2023-07-29T00:54:39;18.90;88.70
1680;DHT22;838;51.794;12.258;2023-07-29T00:57:07;19.30;87.60
1680;DHT22;838;51.794;12.258;2023-07-29T00:59:35;19.50;85.10
1680;DHT22;838;51.794;12.258;2023-07-29T01:02:01;19.70;84.00
1680;DHT22;838;51.794;12.258;2023-07-29T01:04:27;19.70;85.00
1680;DHT22;838;51.794;12.258;2023-07-29T01:09:37;19.90;83.70
1680;DHT22;838;51.794;12.258;2023-07-29T01:15:10;19.70;86.70
1680;DHT22;838;51.794;12.258;2023-07-29T01:17:42;19.60;87.40
1680;DHT22;838;51.794;12.258;2023-07-29T01:20:10;19.70;87.20
1680;DHT22;838;51.794;12.258;2023-07-29T01:22:37;19.90;87.10
1680;DHT22;838;51.794;12.258;2023-07-29T01:25:05;20.00;87.20
1680;DHT22;838;51.794;12.258;2023-07-29T01:27:31;20.00;86.30
1680;DHT22;838;51.794;12.258;2023-07-29T01:29:58;20.10;86.40
1680;DHT22;838;51.794;12.258;2023-07-29T01:32:41;20.20;85.90
1680;DHT22;838;51.794;12.258;2023-07-29T01:35:36;20.20;85.20
1680;DHT22;838;51.794;12.258;2023-07-29T01:38:12;20.40;84.30
1680;DHT22;838;51.794;12.258;2023-07-29T01:40:40;20.40;83.70
1680;DHT22;838;51.794;12.258;2023-07-29T01:43:10;20.60;81.50
1680;DHT22;838;51.794;12.258;2023-07-29T01:45:36;20.60;80.60
1680;DHT22;838;51.794;12.258;2023-07-29T01:48:07;20.80;79.80
1680;DHT22;838;51.794;12.258;2023-07-29T01:50:33;20.80;80.40
1680;DHT22;838;51.794;12.258;2023-07-29T01:52:59;20.80;79.30
1680;DHT22;838;51.794;12.258;2023-07-29T01:55:25;20.80;78.90
1680;DHT22;838;51.794;12.258;2023-07-29T01:57:51;20.80;78.90
1680;DHT22;838;51.794;12.258;2023-07-29T02:00:18;21.00;76.30
1680;DHT22;838;51.794;12.258;2023-07-29T02:02:47;21.20;75.60
1680;DHT22;838;51.794;12.258;2023-07-29T02:05:12;21.20;74.70
1680;DHT22;838;51.794;12.258;2023-07-29T02:07:38;21.20;74.00
1680;DHT22;838;51.794;12.258;2023-07-29T02:10:04;21.30;72.50
1680;DHT22;838;51.794;12.258;2023-07-29T02:12:30;21.30;72.70
1680;DHT22;838;51.794;12.258;2023-07-29T02:14:56;21.30;71.70
1680;DHT22;838;51.794;12.258;2023-07-29T02:17:21;21.20;73.60
1680;DHT22;838;51.794;12.258;2023-07-29T02:19:47;21.10;73.90
1680;DHT22;838;51.794;12.258;2023-07-29T02:22:16;21.20;73.00
1680;DHT22;838;51.794;12.258;2023-07-29T02:24:42;21.20;72.50
1680;DHT22;838;51.794;12.258;2023-07-29T02:27:08;21.20;72.70
1680;DHT22;838;51.794;12.258;2023-07-29T02:29:33;21.10;71.40
1680;DHT22;838;51.794;12.258;2023-07-29T02:34:29;21.20;69.70
1680;DHT22;838;51.794;12.258;2023-07-29T02:36:55;21.00;71.30
1680;DHT22;838;51.794;12.258;2023-07-29T02:41:47;20.90;71.90
1680;DHT22;838;51.794;12.258;2023-07-29T02:44:13;20.90;72.70
1680;DHT22;838;51.794;12.258;2023-07-29T02:46:38;20.90;72.30
1680;DHT22;838;51.794;12.258;2023-07-29T02:49:05;20.80;72.90
1680;DHT22;838;51.794;12.258;2023-07-29T02:51:31;20.80;74.10
1680;DHT22;838;51.794;12.258;2023-07-29T02:53:57;20.70;74.60
1680;DHT22;838;51.794;12.258;2023-07-29T02:56:28;20.70;74.00
1680;DHT22;838;51.794;12.258;2023-07-29T02:58:56;20.70;74.60
1680;DHT22;838;51.794;12.258;2023-07-29T03:01:23;20.60;75.70
1680;DHT22;838;51.794;12.258;2023-07-29T03:03:50;20.60;76.00
1680;DHT22;838;51.794;12.258;2023-07-29T03:06:16;20.50;77.80
1680;DHT22;838;51.794;12.258;2023-07-29T03:08:42;20.50;77.80
1680;DHT22;838;51.794;12.258;2023-07-29T03:11:09;20.50;77.40
1680;DHT22;838;51.794;12.258;2023-07-29T03:13:35;20.40;77.50
1680;DHT22;838;51.794;12.258;2023-07-29T03:16:28;20.40;77.60
1680;DHT22;838;51.794;12.258;2023-07-29T03:18:53;20.40;78.60
1680;DHT22;838;51.794;12.258;2023-07-29T03:21:19;20.20;80.30
1680;DHT22;838;51.794;12.258;2023-07-29T03:23:45;20.30;79.90
1680;DHT22;838;51.794;12.258;2023-07-29T03:26:10;20.30;80.40
1680;DHT22;838;51.794;12.258;2023-07-29T03:28:41;20.30;79.90
1680;DHT22;838;51.794;12.258;2023-07-29T03:31:07;20.40;79.20
1680;DHT22;838;51.794;12.258;2023-07-29T03:33:33;20.30;79.60
1680;DHT22;838;51.794;12.258;2023-07-29T03:35:59;20.40;78.80
1680;DHT22;838;51.794;12.258;2023-07-29T03:38:24;20.40;79.30
1680;DHT22;838;51.794;12.258;2023-07-29T03:40:50;20.30;78.90
1680;DHT22;838;51.794;12.258;2023-07-29T03:43:16;20.30;79.40
1680;DHT22;838;51.794;12.258;2023-07-29T03:45:42;20.40;79.10
1680;DHT22;838;51.794;12.258;2023-07-29T03:48:08;20.40;78.20
1680;DHT22;838;51.794;12.258;2023-07-29T03:50:35;20.40;78.30
1680;DHT22;838;51.794;12.258;2023-07-29T03:53:04;20.30;78.60
1680;DHT22;838;51.794;12.258;2023-07-29T03:55:31;20.30;78.70
1680;DHT22;838;51.794;12.258;2023-07-29T03:58:00;20.30;78.30
1680;DHT22;838;51.794;12.258;2023-07-29T04:00:26;20.30;79.00
1680;DHT22;838;51.794;12.258;2023-07-29T04:02:52;20.30;78.60
1680;DHT22;838;51.794;12.258;2023-07-29T04:05:18;20.40;79.00
1680;DHT22;838;51.794;12.258;2023-07-29T04:07:44;20.50;77.40
1680;DHT22;838;51.794;12.258;2023-07-29T04:10:10;20.60;77.10
1680;DHT22;838;51.794;12.258;2023-07-29T04:12:36;20.70;74.90
1680;DHT22;838;51.794;12.258;2023-07-29T04:15:02;20.70;73.60
1680;DHT22;838;51.794;12.258;2023-07-29T04:17:30;20.70;73.50
1680;DHT22;838;51.794;12.258;2023-07-29T04:19:55;20.70;74.00
1680;DHT22;838;51.794;12.258;2023-07-29T04:22:21;20.70;73.00
1680;DHT22;838;51.794;12.258;2023-07-29T04:24:47;20.60;74.70
1680;DHT22;838;51.794;12.258;2023-07-29T04:27:13;20.60;74.70
1680;DHT22;838;51.794;12.258;2023-07-29T04:29:38;20.60;74.70
1680;DHT22;838;51.794;12.258;2023-07-29T04:32:05;20.70;74.30
1680;DHT22;838;51.794;12.258;2023-07-29T04:34:31;20.70;74.60
1680;DHT22;838;51.794;12.258;2023-07-29T04:36:57;20.60;75.30
1680;DHT22;838;51.794;12.258;2023-07-29T04:39:23;20.60;76.40
1680;DHT22;838;51.794;12.258;2023-07-29T04:41:49;20.60;76.60
1680;DHT22;838;51.794;12.258;2023-07-29T04:44:14;20.60;77.10
1680;DHT22;838;51.794;12.258;2023-07-29T04:46:40;20.70;76.30
1680;DHT22;838;51.794;12.258;2023-07-29T04:49:06;20.90;73.90
1680;DHT22;838;51.794;12.258;2023-07-29T04:51:32;20.90;74.40
1680;DHT22;838;51.794;12.258;2023-07-29T04:53:58;20.90;73.60
1680;DHT22;838;51.794;12.258;2023-07-29T04:56:24;20.90;74.70
1680;DHT22;838;51.794;12.258;2023-07-29T04:58:50;21.00;73.10
1680;DHT22;838;51.794;12.258;2023-07-29T05:01:16;21.10;71.90
1680;DHT22;838;51.794;12.258;2023-07-29T05:03:41;21.10;71.20
1680;DHT22;838;51.794;12.258;2023-07-29T05:06:07;21.10;70.70
1680;DHT22;838;51.794;12.258;2023-07-29T05:08:33;21.20;70.70
1680;DHT22;838;51.794;12.258;2023-07-29T05:10:59;21.30;70.70
1680;DHT22;838;51.794;12.258;2023-07-29T05:13:24;21.30;70.30
1680;DHT22;838;51.794;12.258;2023-07-29T05:15:50;21.30;68.60
1680;DHT22;838;51.794;12.258;2023-07-29T05:18:17;21.40;69.10
1680;DHT22;838;51.794;12.258;2023-07-29T05:20:43;21.30;70.30
1680;DHT22;838;51.794;12.258;2023-07-29T05:23:09;21.50;68.40
1680;DHT22;838;51.794;12.258;2023-07-29T05:25:34;21.70;67.80
1680;DHT22;838;51.794;12.258;2023-07-29T05:28:02;21.80;66.50
1680;DHT22;838;51.794;12.258;2023-07-29T05:30:29;21.80;66.00
1680;DHT22;838;51.794;12.258;2023-07-29T05:33:00;21.80;65.70
1680;DHT22;838;51.794;12.258;2023-07-29T05:35:26;22.10;64.20
1680;DHT22;838;51.794;12.258;2023-07-29T05:37:52;22.20;62.50
1680;DHT22;838;51.794;12.258;2023-07-29T05:40:17;22.50;61.00
1680;DHT22;838;51.794;12.258;2023-07-29T05:42:43;22.50;59.30
1680;DHT22;838;51.794;12.258;2023-07-29T05:45:10;22.60;58.20
1680;DHT22;838;51.794;12.258;2023-07-29T05:47:37;22.80;56.90
1680;DHT22;838;51.794;12.258;2023-07-29T05:50:03;23.00;55.40
1680;DHT22;838;51.794;12.258;2023-07-29T05:52:30;23.20;52.70
1680;DHT22;838;51.794;12.258;2023-07-29T05:54:56;23.30;50.40
1680;DHT22;838;51.794;12.258;2023-07-29T05:57:23;23.50;49.00
1680;DHT22;838;51.794;12.258;2023-07-29T05:59:49;23.50;48.00
1680;DHT22;838;51.794;12.258;2023-07-29T06:02:15;23.70;46.80
1680;DHT22;838;51.794;12.258;2023-07-29T06:04:41;23.90;44.10
1680;DHT22;838;51.794;12.258;2023-07-29T06:07:07;24.10;42.80
1680;DHT22;838;51.794;12.258;2023-07-29T06:09:32;24.20;39.50
1680;DHT22;838;51.794;12.258;2023-07-29T06:11:58;24.20;40.10
1680;DHT22;838;51.794;12.258;2023-07-29T06:14:24;24.20;35.80
1680;DHT22;838;51.794;12.258;2023-07-29T06:16:50;24.20;36.00
1680;DHT22;838;51.794;12.258;2023-07-29T06:19:15;24.10;37.40
1680;DHT22;838;51.794;12.258;2023-07-29T06:21:41;24.10;37.20
1680;DHT22;838;51.794;12.258;2023-07-29T06:24:08;24.10;35.60
1680;DHT22;838;51.794;12.258;2023-07-29T06:26:34;23.70;38.50
1680;DHT22;838;51.794;12.258;2023-07-29T06:29:00;23.50;41.20
1680;DHT22;838;51.794;12.258;2023-07-29T06:31:25;23.70;41.20
1680;DHT22;838;51.794;12.258;2023-07-29T06:33:51;24.00;39.10
1680;DHT22;838;51.794;12.258;2023-07-29T06:36:17;24.20;34.40
1680;DHT22;838;51.794;12.258;2023-07-29T06:38:43;24.40;34.00
1680;DHT22;838;51.794;12.258;2023-07-29T06:41:08;24.20;32.80
1680;DHT22;838;51.794;12.258;2023-07-29T06:43:34;24.40;31.60
1680;DHT22;838;51.794;12.258;2023-07-29T06:46:00;24.80;29.10
1680;DHT22;838;51.794;12.258;2023-07-29T06:48:26;25.10;27.90
1680;DHT22;838;51.794;12.258;2023-07-29T06:50:51;25.30;24.70
1680;DHT22;838;51.794;12.258;2023-07-29T06:53:17;25.20;25.90
1680;DHT22;838;51.794;12.258;2023-07-29T06:55:44;25.30;24.20
1680;DHT22;838;51.794;12.258;2023-07-29T06:58:10;25.10;24.40
1680;DHT22;838;51.794;12.258;2023-07-29T07:00:36;25.10;24.50
1680;DHT22;838;51.794;12.258;2023-07-29T07:03:02;25.10;24.30
1680;DHT22;838;51.794;12.258;2023-07-29T07:05:28;25.20;25.50
1680;DHT22;838;51.794;12.258;2023-07-29T07:07:53;25.50;24.10
1680;DHT22;838;51.794;12.258;2023-07-29T07:10:19;25.90;20.30
1680;DHT22;838;51.794;12.258;2023-07-29T07:12:45;26.10;18.70
1680;DHT22;838;51.794;12.258;2023-07-29T07:15:11;26.20;17.20
1680;DHT22;838;51.794;12.258;2023-07-29T07:17:36;26.50;13.70
1680;DHT22;838;51.794;12.258;2023-07-29T07:22:29;26.40;13.20
1680;DHT22;838;51.794;12.258;2023-07-29T07:24:54;26.20;14.40
1680;DHT22;838;51.794;12.258;2023-07-29T07:27:20;25.90;14.90
1680;DHT22;838;51.794;12.258;2023-07-29T07:29:49;26.00;15.60
1680;DHT22;838;51.794;12.258;2023-07-29T07:32:14;25.90;14.90
1680;DHT22;838;51.794;12.258;2023-07-29T07:34:40;26.00;14.50
1680;DHT22;838;51.794;12.258;2023-07-29T07:37:06;26.00;13.90
1680;DHT22;838;51.794;12.258;2023-07-29T07:39:32;25.80;14.40
1680;DHT22;838;51.794;12.258;2023-07-29T07:41:58;26.00;13.50
1680;DHT22;838;51.794;12.258;2023-07-29T07:44:23;26.00;13.80
1680;DHT22;838;51.794;12.258;2023-07-29T07:46:52;25.80;14.50
1680;DHT22;838;51.794;12.258;2023-07-29T07:49:18;25.90;14.90
1680;DHT22;838;51.794;12.258;2023-07-29T07:51:44;25.90;14.30
1680;DHT22;838;51.794;12.258;2023-07-29T07:54:10;26.00;14.20
1680;DHT22;838;51.794;12.258;2023-07-29T07:56:35;26.20;13.60
1680;DHT22;838;51.794;12.258;2023-07-29T07:59:01;26.40;12.10
1680;DHT22;838;51.794;12.258;2023-07-29T08:01:27;26.40;10.20
1680;DHT22;838;51.794;12.258;2023-07-29T08:03:53;26.30;9.90
1680;DHT22;838;51.794;12.258;2023-07-29T08:06:18;26.10;11.00
1680;DHT22;838;51.794;12.258;2023-07-29T08:08:44;26.10;11.70
1680;DHT22;838;51.794;12.258;2023-07-29T08:11:10;25.70;13.00
1680;DHT22;838;51.794;12.258;2023-07-29T08:13:36;25.50;13.00
1680;DHT22;838;51.794;12.258;2023-07-29T08:16:01;25.40;13.90
1680;DHT22;838;51.794;12.258;2023-07-29T08:18:27;25.50;14.20
1680;DHT22;838;51.794;12.258;2023-07-29T08:20:58;25.50;13.80
1680;DHT22;838;51.794;12.258;2023-07-29T08:23:25;25.80;12.90
1680;DHT22;838;51.794;12.258;2023-07-29T08:25:54;26.10;12.60
1680;DHT22;838;51.794;12.258;2023-07-29T08:28:22;26.50;11.30
1680;DHT22;838;51.794;12.258;2023-07-29T08:30:48;26.60;8.20
1680;DHT22;838;51.794;12.258;2023-07-29T08:33:14;26.80;7.00
1680;DHT22;838;51.794;12.258;2023-07-29T08:35:40;26.80;4.80
1680;DHT22;838;51.794;12.258;2023-07-29T08:38:06;26.70;6.10
1680;DHT22;838;51.794;12.258;2023-07-29T08:40:34;26.40;6.50
1680;DHT22;838;51.794;12.258;2023-07-29T08:43:04;26.50;7.20
1680;DHT22;838;51.794;12.258;2023-07-29T08:45:35;26.60;7.80
1680;DHT22;838;51.794;12.258;2023-07-29T08:48:07;27.00;5.60
1680;DHT22;838;51.794;12.258;2023-07-29T08:50:36;27.50;4.00
1680;DHT22;838;51.794;12.258;2023-07-29T08:53:04;27.80;1.00
1680;DHT22;838;51.794;12.258;2023-07-29T08:55:31;27.40;1.00
1680;DHT22;838;51.794;12.258;2023-07-29T08:57:58;26.90;2.40
1680;DHT22;838;51.794;12.258;2023-07-29T09:00:26;26.50;3.90
1680;DHT22;838;51.794;12.258;2023-07-29T09:02:51;26.40;5.30
1680;DHT22;838;51.794;12.258;2023-07-29T09:05:17;26.20;5.70
1680;DHT22;838;51.794;12.258;2023-07-29T09:07:44;26.20;5.70
1680;DHT22;838;51.794;12.258;2023-07-29T09:10:13;26.00;8.20
1680;DHT22;838;51.794;12.258;2023-07-29T09:12:40;26.00;8.50
1680;DHT22;838;51.794;12.258;2023-07-29T09:15:06;26.10;7.50
1680;DHT22;838;51.794;12.258;2023-07-29T09:17:35;26.30;6.80
1680;DHT22;838;51.794;12.258;2023-07-29T09:20:01;26.30;5.50
1680;DHT22;838;51.794;12.258;2023-07-29T09:22:27;26.30;7.20
1680;DHT22;838;51.794;12.258;2023-07-29T09:24:53;26.50;6.20
1680;DHT22;838;51.794;12.258;2023-07-29T09:27:25;26.60;6.30
1680;DHT22;838;51.794;12.258;2023-07-29T09:29:53;26.80;4.50
1680;DHT22;838;51.794;12.258;2023-07-29T09:32:20;26.50;5.50
1680;DHT22;838;51.794;12.258;2023-07-29T09:34:46;26.30;5.90
1680;DHT22;838;51.794;12.258;2023-07-29T09:37:21;26.40;6.00
1680;DHT22;838;51.794;12.258;2023-07-29T09:39:48;26.50;6.10
1680;DHT22;838;51.794;12.258;2023-07-29T09:42:19;26.60;6.60
1680;DHT22;838;51.794;12.258;2023-07-29T09:44:45;26.80;4.40
1680;DHT22;838;51.794;12.258;2023-07-29T09:47:19;26.90;4.30
1680;DHT22;838;51.794;12.258;2023-07-29T09:49:45;26.90;4.90
1680;DHT22;838;51.794;12.258;2023-07-29T09:52:11;27.20;3.50
1680;DHT22;838;51.794;12.258;2023-07-29T09:54:37;27.20;2.60
1680;DHT22;838;51.794;12.258;2023-07-29T09:57:03;27.10;2.40
1680;DHT22;838;51.794;12.258;2023-07-29T09:59:34;27.00;3.00
1680;DHT22;838;51.794;12.258;2023-07-29T10:02:00;26.90;1.60
1680;DHT22;838;51.794;12.258;2023-07-29T10:04:26;26.70;2.40
1680;DHT22;838;51.794;12.258;2023-07-29T10:06:52;26.90;1.70
1680;DHT22;838;51.794;12.258;2023-07-29T10:09:20;26.80;1.30
1680;DHT22;838;51.794;12.258;2023-07-29T10:11:46;26.80;1.80
1680;DHT22;838;51.794;12.258;2023-07-29T10:14:11;26.50;2.70
1680;DHT22;838;51.794;12.258;2023-07-29T10:16:37;26.40;4.10
1680;DHT22;838;51.794;12.258;2023-07-29T10:19:05;26.30;4.30
1680;DHT22;838;51.794;12.258;2023-07-29T10:21:33;26.30;4.80
1680;DHT22;838;51.794;12.258;2023-07-29T10:24:01;26.50;4.20
1680;DHT22;838;51.794;12.258;2023-07-29T10:26:28;26.60;3.80
1680;DHT22;838;51.794;12.258;2023-07-29T10:28:59;26.90;2.00
1680;DHT22;838;51.794;12.258;2023-07-29T10:31:30;26.50;3.90
1680;DHT22;838;51.794;12.258;2023-07-29T10:33:57;25.50;7.10
1680;DHT22;838;51.794;12.258;2023-07-29T10:36:23;24.10;13.70
1680;DHT22;838;51.794;12.258;2023-07-29T10:38:49;23.50;19.50
1680;DHT22;838;51.794;12.258;2023-07-29T10:41:15;23.00;24.20
1680;DHT22;838;51.794;12.258;2023-07-29T10:43:41;23.00;27.40
1680;DHT22;838;51.794;12.258;2023-07-29T10:46:20;22.90;28.90
1680;DHT22;838;51.794;12.258;2023-07-29T10:48:53;23.10;28.30
1680;DHT22;838;51.794;12.258;2023-07-29T10:51:31;23.20;28.50
1680;DHT22;838;51.794;12.258;2023-07-29T10:54:11;23.20;27.40
1680;DHT22;838;51.794;12.258;2023-07-29T10:56:40;23.20;25.70
1680;DHT22;838;51.794;12.258;2023-07-29T11:01:39;23.50;27.80
1680;DHT22;838;51.794;12.258;2023-07-29T11:07:24;22.30;53.60
1680;DHT22;838;51.794;12.258;2023-07-29T11:10:02;21.90;62.00
1680;DHT22;838;51.794;12.258;2023-07-29T11:12:41;21.90;72.70
1680;DHT22;838;51.794;12.258;2023-07-29T11:17:40;22.40;78.90
1680;DHT22;838;51.794;12.258;2023-07-29T11:20:07;22.50;74.50
1680;DHT22;838;51.794;12.258;2023-07-29T11:22:33;22.70;68.70
1680;DHT22;838;51.794;12.258;2023-07-29T11:24:59;22.60;58.90
1680;DHT22;838;51.794;12.258;2023-07-29T11:27:25;22.80;59.50
1680;DHT22;838;51.794;12.258;2023-07-29T11:29:59;22.60;55.60
1680;DHT22;838;51.794;12.258;2023-07-29T11:32:26;22.60;58.30
1680;DHT22;838;51.794;12.258;2023-07-29T11:34:52;22.50;61.80
1680;DHT22;838;51.794;12.258;2023-07-29T11:37:18;22.40;59.20
1680;DHT22;838;51.794;12.258;2023-07-29T11:39:45;22.30;57.30
1680;DHT22;838;51.794;12.258;2023-07-29T11:42:12;22.40;57.10
1680;DHT22;838;51.794;12.258;2023-07-29T11:44:38;22.50;60.50
1680;DHT22;838;51.794;12.258;2023-07-29T11:47:12;22.90;60.20
1680;DHT22;838;51.794;12.258;2023-07-29T11:49:41;23.00;50.30
1680;DHT22;838;51.794;12.258;2023-07-29T11:52:08;23.20;51.10
1680;DHT22;838;51.794;12.258;2023-07-29T11:54:38;23.50;49.50
1680;DHT22;838;51.794;12.258;2023-07-29T11:57:08;23.70;49.40
1680;DHT22;838;51.794;12.258;2023-07-29T11:59:35;23.90;39.00
1680;DHT22;838;51.794;12.258;2023-07-29T12:02:02;23.90;43.10
1680;DHT22;838;51.794;12.258;2023-07-29T12:04:31;23.90;43.00
1680;DHT22;838;51.794;12.258;2023-07-29T12:06:57;23.60;44.80
1680;DHT22;838;51.794;12.258;2023-07-29T12:09:24;23.50;52.10
1680;DHT22;838;51.794;12.258;2023-07-29T12:14:17;23.70;56.90
1680;DHT22;838;51.794;12.258;2023-07-29T12:16:44;24.00;51.20
1680;DHT22;838;51.794;12.258;2023-07-29T12:19:13;24.00;51.00
1680;DHT22;838;51.794;12.258;2023-07-29T12:21:43;24.00;50.00
1680;DHT22;838;51.794;12.258;2023-07-29T12:24:08;24.10;45.60
1680;DHT22;838;51.794;12.258;2023-07-29T12:26:36;24.00;47.10
1680;DHT22;838;51.794;12.258;2023-07-29T12:29:28;24.40;44.70
1680;DHT22;838;51.794;12.258;2023-07-29T12:32:01;24.80;45.40
1680;DHT22;838;51.794;12.258;2023-07-29T12:34:28;25.10;39.10
1680;DHT22;838;51.794;12.258;2023-07-29T12:36:55;25.10;35.70
1680;DHT22;838;51.794;12.258;2023-07-29T12:39:28;25.10;40.70
1680;DHT22;838;51.794;12.258;2023-07-29T12:41:56;25.50;40.20
1680;DHT22;838;51.794;12.258;2023-07-29T12:44:30;25.80;32.70
1680;DHT22;838;51.794;12.258;2023-07-29T12:49:21;26.80;21.70
1680;DHT22;838;51.794;12.258;2023-07-29T12:51:48;27.00;19.00
1680;DHT22;838;51.794;12.258;2023-07-29T12:54:14;27.10;17.30
1680;DHT22;838;51.794;12.258;2023-07-29T12:56:40;27.40;15.00
1680;DHT22;838;51.794;12.258;2023-07-29T12:59:06;27.80;14.20
1680;DHT22;838;51.794;12.258;2023-07-29T13:01:32;28.20;14.70
1680;DHT22;838;51.794;12.258;2023-07-29T13:03:58;28.20;11.40
1680;DHT22;838;51.794;12.258;2023-07-29T13:06:23;28.10;10.20
1680;DHT22;838;51.794;12.258;2023-07-29T13:08:49;27.90;10.80
1680;DHT22;838;51.794;12.258;2023-07-29T13:11:15;27.60;6.70
1680;DHT22;838;51.794;12.258;2023-07-29T13:13:41;27.30;8.40
1680;DHT22;838;51.794;12.258;2023-07-29T13:16:07;27.40;10.00
1680;DHT22;838;51.794;12.258;2023-07-29T13:18:34;27.60;7.80
1680;DHT22;838;51.794;12.258;2023-07-29T13:21:00;27.40;6.30
1680;DHT22;838;51.794;12.258;2023-07-29T13:23:27;27.30;6.60
1680;DHT22;838;51.794;12.258;2023-07-29T13:25:55;27.30;6.70
1680;DHT22;838;51.794;12.258;2023-07-29T13:28:21;27.40;7.90
1680;DHT22;838;51.794;12.258;2023-07-29T13:30:47;27.20;9.20
1680;DHT22;838;51.794;12.258;2023-07-29T13:33:12;26.90;11.50
1680;DHT22;838;51.794;12.258;2023-07-29T13:35:38;26.90;10.40
1680;DHT22;838;51.794;12.258;2023-07-29T13:38:04;26.60;12.70
1680;DHT22;838;51.794;12.258;2023-07-29T13:40:30;26.60;15.70
1680;DHT22;838;51.794;12.258;2023-07-29T13:42:56;26.40;20.70
1680;DHT22;838;51.794;12.258;2023-07-29T13:45:22;26.00;24.30
1680;DHT22;838;51.794;12.258;2023-07-29T13:47:54;25.40;31.70
1680;DHT22;838;51.794;12.258;2023-07-29T13:50:20;24.70;29.00
1680;DHT22;838;51.794;12.258;2023-07-29T13:52:54;24.60;27.80
1680;DHT22;838;51.794;12.258;2023-07-29T13:55:20;24.90;29.70
1680;DHT22;838;51.794;12.258;2023-07-29T13:57:46;25.10;25.90
1680;DHT22;838;51.794;12.258;2023-07-29T14:00:12;25.50;23.50
1680;DHT22;838;51.794;12.258;2023-07-29T14:02:38;25.90;22.50
1680;DHT22;838;51.794;12.258;2023-07-29T14:05:04;26.10;20.70
1680;DHT22;838;51.794;12.258;2023-07-29T14:07:30;26.30;18.90
1680;DHT22;838;51.794;12.258;2023-07-29T14:09:56;26.60;20.30
1680;DHT22;838;51.794;12.258;2023-07-29T14:12:21;26.80;17.10
1680;DHT22;838;51.794;12.258;2023-07-29T14:14:47;26.90;18.40
1680;DHT22;838;51.794;12.258;2023-07-29T14:17:13;27.00;16.30
1680;DHT22;838;51.794;12.258;2023-07-29T14:19:38;27.20;17.50
1680;DHT22;838;51.794;12.258;2023-07-29T14:22:04;27.10;17.00
1680;DHT22;838;51.794;12.258;2023-07-29T14:24:30;27.00;22.40
1680;DHT22;838;51.794;12.258;2023-07-29T14:26:56;26.80;25.30
1680;DHT22;838;51.794;12.258;2023-07-29T14:29:22;26.30;25.90
1680;DHT22;838;51.794;12.258;2023-07-29T14:31:50;25.70;36.40
1680;DHT22;838;51.794;12.258;2023-07-29T14:34:15;25.50;35.30
1680;DHT22;838;51.794;12.258;2023-07-29T14:36:41;25.60;37.70
1680;DHT22;838;51.794;12.258;2023-07-29T14:39:07;25.70;37.00
1680;DHT22;838;51.794;12.258;2023-07-29T14:41:33;25.50;38.80
1680;DHT22;838;51.794;12.258;2023-07-29T14:44:04;25.30;39.80
1680;DHT22;838;51.794;12.258;2023-07-29T14:46:33;25.10;42.60
1680;DHT22;838;51.794;12.258;2023-07-29T14:48:58;25.10;46.80
1680;DHT22;838;51.794;12.258;2023-07-29T14:51:24;25.00;48.30
1680;DHT22;838;51.794;12.258;2023-07-29T14:53:50;25.10;48.20
1680;DHT22;838;51.794;12.258;2023-07-29T14:56:16;25.30;46.50
1680;DHT22;838;51.794;12.258;2023-07-29T14:58:44;25.50;44.00
1680;DHT22;838;51.794;12.258;2023-07-29T15:01:10;25.80;41.70
1680;DHT22;838;51.794;12.258;2023-07-29T15:03:36;25.90;39.50
1680;DHT22;838;51.794;12.258;2023-07-29T15:06:01;26.00;37.80
1680;DHT22;838;51.794;12.258;2023-07-29T15:08:28;26.10;34.90
1680;DHT22;838;51.794;12.258;2023-07-29T15:10:54;26.40;33.50
1680;DHT22;838;51.794;12.258;2023-07-29T15:13:20;26.60;30.90
1680;DHT22;838;51.794;12.258;2023-07-29T15:15:46;26.80;30.30
1680;DHT22;838;51.794;12.258;2023-07-29T15:18:13;27.00;27.10
1680;DHT22;838;51.794;12.258;2023-07-29T15:20:39;27.10;26.30
1680;DHT22;838;51.794;12.258;2023-07-29T15:23:05;27.30;24.90
1680;DHT22;838;51.794;12.258;2023-07-29T15:25:30;27.40;21.50
1680;DHT22;838;51.794;12.258;2023-07-29T15:27:56;27.30;16.30
1680;DHT22;838;51.794;12.258;2023-07-29T15:30:23;27.00;11.10
1680;DHT22;838;51.794;12.258;2023-07-29T15:32:49;26.70;12.10
1680;DHT22;838;51.794;12.258;2023-07-29T15:35:15;26.30;8.40
1680;DHT22;838;51.794;12.258;2023-07-29T15:37:41;26.20;11.60
1680;DHT22;838;51.794;12.258;2023-07-29T15:40:07;26.30;8.30
1680;DHT22;838;51.794;12.258;2023-07-29T15:42:33;26.30;8.20
1680;DHT22;838;51.794;12.258;2023-07-29T15:44:59;26.60;5.40
1680;DHT22;838;51.794;12.258;2023-07-29T15:47:24;26.60;4.40
1680;DHT22;838;51.794;12.258;2023-07-29T15:49:50;26.60;5.00
1680;DHT22;838;51.794;12.258;2023-07-29T15:52:16;26.70;2.60
1680;DHT22;838;51.794;12.258;2023-07-29T15:54:42;26.60;3.10
1680;DHT22;838;51.794;12.258;2023-07-29T15:57:09;26.60;4.50
1680;DHT22;838;51.794;12.258;2023-07-29T15:59:35;26.60;5.00
1680;DHT22;838;51.794;12.258;2023-07-29T16:02:01;26.60;4.70
1680;DHT22;838;51.794;12.258;2023-07-29T16:04:27;26.40;3.30
1680;DHT22;838;51.794;12.258;2023-07-29T16:06:53;26.20;2.90
1680;DHT22;838;51.794;12.258;2023-07-29T16:09:20;26.10;4.30
1680;DHT22;838;51.794;12.258;2023-07-29T16:11:49;26.20;1.00
1680;DHT22;838;51.794;12.258;2023-07-29T16:14:15;26.30;1.00
1680;DHT22;838;51.794;12.258;2023-07-29T16:16:41;26.50;1.00
1680;DHT22;838;51.794;12.258;2023-07-29T16:19:08;26.60;1.00
1680;DHT22;838;51.794;12.258;2023-07-29T16:21:35;26.80;1.00
1680;DHT22;838;51.794;12.258;2023-07-29T16:24:01;26.80;1.00
1680;DHT22;838;51.794;12.258;2023-07-29T16:26:30;26.60;1.00
1680;DHT22;838;51.794;12.258;2023-07-29T16:28:58;26.30;1.00
1680;DHT22;838;51.794;12.258;2023-07-29T16:31:24;26.20;1.00